RPA5514 KORD-KCMH
Flight info
| Callsign | RPA5514 |
|---|---|
| Flight time | 0h 50m |
| Altitude | 23000 |
| Route | MOBLE ADIME SEWTO FWA BRYEN DUBLN1 |
| Aircraft | B462/M-SBDFGRY/L |
Departure
| Time | 2026-05-08 23:56 |
|---|---|
| Airport | Chicago O'Hare International Airport (KORD) |
Arrival
| Time | 2026-05-09 00:46 |
|---|---|
| Airport | John Glenn Columbus International Airport (KCMH) |
| Time | Latitude | Longitude | Altitude | Speed | Heading |
|---|---|---|---|---|---|
| 2026-05-08 23:00 | 41.97409 | -87.90105 | 670 ft | 0 kts | 90° |
| 2026-05-08 23:39 | 41.97409 | -87.90108 | 670 ft | 2 kts | 90° |
| 2026-05-08 23:40 | 41.97409 | -87.90130 | 670 ft | 2 kts | 91° |
| 2026-05-08 23:40 | 41.97410 | -87.90153 | 670 ft | 2 kts | 111° |
| 2026-05-08 23:40 | 41.97418 | -87.90161 | 670 ft | 0 kts | 174° |
| 2026-05-08 23:45 | 41.97396 | -87.90159 | 670 ft | 8 kts | 178° |
| 2026-05-08 23:45 | 41.97323 | -87.90158 | 670 ft | 13 kts | 181° |
| 2026-05-08 23:45 | 41.97241 | -87.90158 | 670 ft | 10 kts | 170° |
| 2026-05-08 23:45 | 41.97176 | -87.90134 | 670 ft | 12 kts | 175° |
| 2026-05-08 23:46 | 41.97092 | -87.90131 | 670 ft | 11 kts | 180° |
| 2026-05-08 23:46 | 41.97039 | -87.90194 | 670 ft | 13 kts | 270° |
| 2026-05-08 23:46 | 41.97043 | -87.90341 | 669 ft | 18 kts | 270° |
| 2026-05-08 23:46 | 41.97042 | -87.90523 | 669 ft | 19 kts | 269° |
| 2026-05-08 23:47 | 41.97042 | -87.90688 | 669 ft | 16 kts | 270° |
| 2026-05-08 23:47 | 41.97043 | -87.90841 | 669 ft | 17 kts | 271° |
| 2026-05-08 23:47 | 41.97042 | -87.90989 | 670 ft | 14 kts | 268° |
| 2026-05-08 23:47 | 41.97040 | -87.91120 | 671 ft | 17 kts | 271° |
| 2026-05-08 23:48 | 41.97042 | -87.91273 | 671 ft | 18 kts | 270° |
| 2026-05-08 23:48 | 41.97040 | -87.91444 | 671 ft | 19 kts | 272° |
| 2026-05-08 23:48 | 41.97042 | -87.91617 | 672 ft | 17 kts | 268° |
| 2026-05-08 23:48 | 41.97036 | -87.91765 | 671 ft | 15 kts | 269° |
| 2026-05-08 23:49 | 41.97037 | -87.91905 | 671 ft | 15 kts | 271° |
| 2026-05-08 23:49 | 41.97038 | -87.92035 | 671 ft | 7 kts | 269° |
| 2026-05-08 23:49 | 41.97033 | -87.92070 | 671 ft | 2 kts | 244° |
| 2026-05-08 23:49 | 41.97026 | -87.92080 | 671 ft | 2 kts | 213° |
| 2026-05-08 23:50 | 41.97020 | -87.92083 | 671 ft | 0 kts | 194° |
| 2026-05-08 23:50 | 41.97016 | -87.92084 | 671 ft | 1 kts | 185° |
| 2026-05-08 23:50 | 41.97014 | -87.92084 | 671 ft | 0 kts | 181° |
| 2026-05-08 23:55 | 41.96999 | -87.92084 | 671 ft | 4 kts | 181° |
| 2026-05-08 23:55 | 41.96959 | -87.92084 | 672 ft | 8 kts | 175° |
| 2026-05-08 23:55 | 41.96909 | -87.92059 | 671 ft | 8 kts | 137° |
| 2026-05-08 23:55 | 41.96903 | -87.91988 | 673 ft | 14 kts | 89° |
| 2026-05-08 23:56 | 41.96903 | -87.91563 | 675 ft | 77 kts | 90° |
| 2026-05-08 23:56 | 41.96903 | -87.90603 | 668 ft | 126 kts | 92° |
| 2026-05-08 23:56 | 41.96891 | -87.89369 | 961 ft | 135 kts | 93° |
| 2026-05-08 23:56 | 41.96839 | -87.88079 | 1355 ft | 138 kts | 100° |
| 2026-05-08 23:57 | 41.96566 | -87.86783 | 1611 ft | 155 kts | 109° |
| 2026-05-08 23:57 | 41.96200 | -87.85304 | 1762 ft | 177 kts | 110° |
| 2026-05-08 23:57 | 41.95785 | -87.83696 | 2286 ft | 182 kts | 111° |
| 2026-05-08 23:57 | 41.95325 | -87.82006 | 2568 ft | 205 kts | 110° |
| 2026-05-08 23:58 | 41.94900 | -87.80056 | 2768 ft | 233 kts | 105° |
| 2026-05-08 23:58 | 41.94489 | -87.77781 | 2926 ft | 268 kts | 104° |
| 2026-05-08 23:58 | 41.94038 | -87.75264 | 3509 ft | 275 kts | 104° |
| 2026-05-08 23:58 | 41.93705 | -87.72741 | 4403 ft | 275 kts | 91° |
| 2026-05-08 23:59 | 41.93815 | -87.70158 | 5245 ft | 280 kts | 84° |
| 2026-05-08 23:59 | 41.93983 | -87.67530 | 6094 ft | 284 kts | 85° |
| 2026-05-08 23:59 | 41.94129 | -87.64861 | 6981 ft | 289 kts | 86° |
| 2026-05-08 23:59 | 41.94248 | -87.62139 | 7819 ft | 296 kts | 86° |
| 2026-05-09 00:00 | 41.94334 | -87.59346 | 8663 ft | 302 kts | 86° |
| 2026-05-09 00:00 | 41.94401 | -87.56494 | 9476 ft | 309 kts | 86° |
| 2026-05-09 00:00 | 41.94451 | -87.53587 | 10232 ft | 314 kts | 87° |
| 2026-05-09 00:00 | 41.94492 | -87.50637 | 10977 ft | 318 kts | 88° |
| 2026-05-09 00:01 | 41.94508 | -87.47651 | 11705 ft | 321 kts | 88° |
| 2026-05-09 00:01 | 41.94520 | -87.44637 | 12400 ft | 325 kts | 88° |
| 2026-05-09 00:01 | 41.94529 | -87.41579 | 13070 ft | 329 kts | 88° |
| 2026-05-09 00:01 | 41.94543 | -87.38482 | 13706 ft | 333 kts | 88° |
| 2026-05-09 00:02 | 41.94555 | -87.35357 | 14251 ft | 337 kts | 88° |
| 2026-05-09 00:02 | 41.94568 | -87.32197 | 14770 ft | 341 kts | 88° |
| 2026-05-09 00:02 | 41.94581 | -87.28994 | 15272 ft | 345 kts | 88° |
| 2026-05-09 00:02 | 41.94593 | -87.25759 | 15761 ft | 348 kts | 88° |
| 2026-05-09 00:03 | 41.94603 | -87.22491 | 16241 ft | 352 kts | 88° |
| 2026-05-09 00:03 | 41.94613 | -87.19191 | 16697 ft | 355 kts | 88° |
| 2026-05-09 00:03 | 41.94620 | -87.15857 | 17148 ft | 358 kts | 88° |
| 2026-05-09 00:03 | 41.94623 | -87.12496 | 17571 ft | 362 kts | 88° |
| 2026-05-09 00:04 | 41.94631 | -87.09101 | 17982 ft | 365 kts | 88° |
| 2026-05-09 00:04 | 41.94659 | -87.05676 | 18341 ft | 368 kts | 88° |
| 2026-05-09 00:04 | 41.94703 | -87.02227 | 18672 ft | 371 kts | 87° |
| 2026-05-09 00:04 | 41.94774 | -86.98752 | 19006 ft | 374 kts | 87° |
| 2026-05-09 00:05 | 41.94831 | -86.95258 | 19354 ft | 376 kts | 87° |
| 2026-05-09 00:05 | 41.94878 | -86.91729 | 19638 ft | 380 kts | 87° |
| 2026-05-09 00:05 | 41.94917 | -86.88169 | 19931 ft | 382 kts | 89° |
| 2026-05-09 00:05 | 41.94558 | -86.84628 | 20184 ft | 385 kts | 110° |
| 2026-05-09 00:06 | 41.93333 | -86.81468 | 20428 ft | 381 kts | 133° |
| 2026-05-09 00:06 | 41.91481 | -86.78965 | 20722 ft | 376 kts | 144° |
| 2026-05-09 00:06 | 41.89704 | -86.76340 | 20985 ft | 387 kts | 127° |
| 2026-05-09 00:06 | 41.88286 | -86.73254 | 21280 ft | 391 kts | 124° |
| 2026-05-09 00:07 | 41.86885 | -86.70114 | 21561 ft | 393 kts | 125° |
| 2026-05-09 00:07 | 41.85445 | -86.66993 | 21835 ft | 394 kts | 126° |
| 2026-05-09 00:07 | 41.83954 | -86.63893 | 22109 ft | 396 kts | 128° |
| 2026-05-09 00:07 | 41.82422 | -86.60823 | 22389 ft | 398 kts | 129° |
| 2026-05-09 00:08 | 41.80843 | -86.57730 | 22644 ft | 400 kts | 129° |
| 2026-05-09 00:08 | 41.79265 | -86.54658 | 22789 ft | 407 kts | 129° |
| 2026-05-09 00:08 | 41.77636 | -86.51503 | 22831 ft | 417 kts | 129° |
| 2026-05-09 00:08 | 41.75961 | -86.48275 | 22851 ft | 426 kts | 129° |
| 2026-05-09 00:09 | 41.74247 | -86.44981 | 22862 ft | 435 kts | 129° |
| 2026-05-09 00:09 | 41.72492 | -86.41626 | 22846 ft | 444 kts | 129° |
| 2026-05-09 00:09 | 41.70702 | -86.38206 | 22832 ft | 452 kts | 129° |
| 2026-05-09 00:09 | 41.68888 | -86.34718 | 22843 ft | 460 kts | 129° |
| 2026-05-09 00:10 | 41.67044 | -86.31176 | 22846 ft | 468 kts | 129° |
| 2026-05-09 00:10 | 41.65176 | -86.27584 | 22844 ft | 472 kts | 129° |
| 2026-05-09 00:10 | 41.63290 | -86.23966 | 22838 ft | 476 kts | 129° |
| 2026-05-09 00:10 | 41.62008 | -86.21507 | 22839 ft | 478 kts | 129° |
| 2026-05-09 00:11 | 41.60127 | -86.17897 | 22839 ft | 480 kts | 129° |
| 2026-05-09 00:11 | 41.58233 | -86.14265 | 22828 ft | 472 kts | 129° |
| 2026-05-09 00:11 | 41.56357 | -86.10658 | 22824 ft | 474 kts | 129° |
| 2026-05-09 00:11 | 41.54476 | -86.07053 | 22824 ft | 473 kts | 129° |
| 2026-05-09 00:12 | 41.52603 | -86.03453 | 22835 ft | 471 kts | 129° |
| 2026-05-09 00:12 | 41.50725 | -85.99883 | 22833 ft | 470 kts | 130° |
| 2026-05-09 00:12 | 41.48822 | -85.96320 | 22798 ft | 473 kts | 130° |
| 2026-05-09 00:12 | 41.46915 | -85.92741 | 22829 ft | 474 kts | 130° |
| 2026-05-09 00:13 | 41.45005 | -85.89143 | 22837 ft | 477 kts | 129° |
| 2026-05-09 00:13 | 41.43108 | -85.85505 | 22841 ft | 479 kts | 129° |
| 2026-05-09 00:13 | 41.41198 | -85.81864 | 22855 ft | 479 kts | 130° |
| 2026-05-09 00:13 | 41.39277 | -85.78251 | 22857 ft | 476 kts | 130° |
| 2026-05-09 00:14 | 41.37362 | -85.74655 | 22855 ft | 476 kts | 130° |
| 2026-05-09 00:14 | 41.35446 | -85.71064 | 22855 ft | 475 kts | 130° |
| 2026-05-09 00:14 | 41.33536 | -85.67477 | 22859 ft | 475 kts | 130° |
| 2026-05-09 00:14 | 41.31635 | -85.63914 | 22853 ft | 474 kts | 130° |
| 2026-05-09 00:15 | 41.29730 | -85.60333 | 22850 ft | 474 kts | 130° |
| 2026-05-09 00:15 | 41.27826 | -85.56761 | 22856 ft | 473 kts | 130° |
| 2026-05-09 00:15 | 41.25925 | -85.53190 | 22821 ft | 474 kts | 130° |
| 2026-05-09 00:15 | 41.24020 | -85.49599 | 22851 ft | 474 kts | 130° |
| 2026-05-09 00:16 | 41.22128 | -85.46014 | 22889 ft | 475 kts | 130° |
| 2026-05-09 00:16 | 41.20228 | -85.42414 | 22873 ft | 476 kts | 130° |
| 2026-05-09 00:16 | 41.18303 | -85.38833 | 22862 ft | 475 kts | 131° |
| 2026-05-09 00:16 | 41.16358 | -85.35225 | 22864 ft | 475 kts | 131° |
| 2026-05-09 00:17 | 41.14431 | -85.31665 | 22862 ft | 475 kts | 131° |
| 2026-05-09 00:17 | 41.12534 | -85.28157 | 22860 ft | 474 kts | 131° |
| 2026-05-09 00:17 | 41.10611 | -85.24605 | 22868 ft | 474 kts | 131° |
| 2026-05-09 00:17 | 41.08666 | -85.21009 | 22880 ft | 474 kts | 130° |
| 2026-05-09 00:18 | 41.06789 | -85.17483 | 22907 ft | 475 kts | 130° |
| 2026-05-09 00:18 | 41.04875 | -85.13915 | 22915 ft | 475 kts | 131° |
| 2026-05-09 00:18 | 41.02954 | -85.10352 | 22900 ft | 476 kts | 131° |
| 2026-05-09 00:18 | 41.01029 | -85.06780 | 22880 ft | 476 kts | 131° |
| 2026-05-09 00:19 | 40.99120 | -85.03218 | 22877 ft | 472 kts | 131° |
| 2026-05-09 00:19 | 40.97221 | -84.99705 | 22862 ft | 468 kts | 131° |
| 2026-05-09 00:19 | 40.95318 | -84.96227 | 22856 ft | 466 kts | 131° |
| 2026-05-09 00:19 | 40.93416 | -84.92758 | 22854 ft | 464 kts | 131° |
| 2026-05-09 00:20 | 40.91524 | -84.89311 | 22860 ft | 462 kts | 131° |
| 2026-05-09 00:20 | 40.89642 | -84.85877 | 22860 ft | 461 kts | 131° |
| 2026-05-09 00:20 | 40.87765 | -84.82450 | 22861 ft | 460 kts | 131° |
| 2026-05-09 00:20 | 40.85976 | -84.78858 | 22862 ft | 463 kts | 126° |
| 2026-05-09 00:21 | 40.84462 | -84.75096 | 22864 ft | 465 kts | 120° |
| 2026-05-09 00:21 | 40.83139 | -84.71205 | 22865 ft | 465 kts | 117° |
| 2026-05-09 00:21 | 40.81919 | -84.67256 | 22866 ft | 465 kts | 115° |
| 2026-05-09 00:21 | 40.80745 | -84.63302 | 22864 ft | 464 kts | 115° |
| 2026-05-09 00:22 | 40.79560 | -84.59339 | 22865 ft | 463 kts | 116° |
| 2026-05-09 00:22 | 40.78376 | -84.55389 | 22862 ft | 463 kts | 116° |
| 2026-05-09 00:22 | 40.77176 | -84.51496 | 22861 ft | 466 kts | 116° |
| 2026-05-09 00:22 | 40.75935 | -84.47539 | 22876 ft | 468 kts | 116° |
| 2026-05-09 00:23 | 40.74685 | -84.43565 | 22886 ft | 471 kts | 116° |
| 2026-05-09 00:23 | 40.73420 | -84.39568 | 22888 ft | 473 kts | 116° |
| 2026-05-09 00:23 | 40.72163 | -84.35547 | 22894 ft | 476 kts | 116° |
| 2026-05-09 00:23 | 40.70917 | -84.31488 | 22891 ft | 478 kts | 116° |
| 2026-05-09 00:24 | 40.69644 | -84.27433 | 22891 ft | 481 kts | 116° |
| 2026-05-09 00:24 | 40.68354 | -84.23358 | 22893 ft | 483 kts | 116° |
| 2026-05-09 00:24 | 40.67061 | -84.19289 | 22890 ft | 474 kts | 116° |
| 2026-05-09 00:24 | 40.65826 | -84.15376 | 22878 ft | 452 kts | 116° |
| 2026-05-09 00:25 | 40.64641 | -84.11599 | 22191 ft | 448 kts | 116° |
| 2026-05-09 00:25 | 40.63450 | -84.07823 | 21617 ft | 443 kts | 116° |
| 2026-05-09 00:25 | 40.62273 | -84.04108 | 21080 ft | 437 kts | 116° |
| 2026-05-09 00:25 | 40.61106 | -84.00449 | 20531 ft | 432 kts | 116° |
| 2026-05-09 00:26 | 40.59966 | -83.96813 | 20013 ft | 427 kts | 115° |
| 2026-05-09 00:26 | 40.58839 | -83.93215 | 19535 ft | 423 kts | 115° |
| 2026-05-09 00:26 | 40.57715 | -83.89651 | 19116 ft | 420 kts | 115° |
| 2026-05-09 00:26 | 40.56600 | -83.86134 | 18745 ft | 415 kts | 115° |
| 2026-05-09 00:27 | 40.55491 | -83.82647 | 18362 ft | 412 kts | 115° |
| 2026-05-09 00:27 | 40.54384 | -83.79189 | 17890 ft | 408 kts | 115° |
| 2026-05-09 00:27 | 40.53286 | -83.75768 | 17398 ft | 405 kts | 115° |
| 2026-05-09 00:27 | 40.52195 | -83.72372 | 16895 ft | 401 kts | 115° |
| 2026-05-09 00:28 | 40.51115 | -83.69012 | 16403 ft | 398 kts | 115° |
| 2026-05-09 00:28 | 40.50044 | -83.65680 | 15952 ft | 395 kts | 115° |
| 2026-05-09 00:28 | 40.48978 | -83.62371 | 15656 ft | 392 kts | 115° |
| 2026-05-09 00:28 | 40.47921 | -83.59076 | 15372 ft | 390 kts | 115° |
| 2026-05-09 00:29 | 40.46873 | -83.55797 | 15021 ft | 389 kts | 115° |
| 2026-05-09 00:29 | 40.45831 | -83.52529 | 14681 ft | 386 kts | 115° |
| 2026-05-09 00:29 | 40.44782 | -83.49302 | 14382 ft | 382 kts | 117° |
| 2026-05-09 00:29 | 40.43479 | -83.46320 | 14197 ft | 372 kts | 127° |
| 2026-05-09 00:30 | 40.42019 | -83.43579 | 14084 ft | 362 kts | 129° |
| 2026-05-09 00:30 | 40.40550 | -83.40940 | 14016 ft | 354 kts | 130° |
| 2026-05-09 00:30 | 40.39086 | -83.38364 | 13922 ft | 352 kts | 130° |
| 2026-05-09 00:30 | 40.37597 | -83.35766 | 13543 ft | 359 kts | 130° |
| 2026-05-09 00:31 | 40.36104 | -83.33178 | 13200 ft | 352 kts | 131° |
| 2026-05-09 00:31 | 40.34642 | -83.30636 | 12868 ft | 346 kts | 131° |
| 2026-05-09 00:31 | 40.33214 | -83.28141 | 12708 ft | 335 kts | 131° |
| 2026-05-09 00:31 | 40.31838 | -83.25723 | 12380 ft | 332 kts | 131° |
| 2026-05-09 00:32 | 40.30311 | -83.23512 | 12015 ft | 323 kts | 144° |
| 2026-05-09 00:32 | 40.28593 | -83.21647 | 11672 ft | 319 kts | 147° |
| 2026-05-09 00:32 | 40.26858 | -83.19855 | 11337 ft | 316 kts | 148° |
| 2026-05-09 00:32 | 40.25133 | -83.18102 | 11016 ft | 313 kts | 148° |
| 2026-05-09 00:33 | 40.23415 | -83.16367 | 10689 ft | 310 kts | 149° |
| 2026-05-09 00:33 | 40.21718 | -83.14642 | 10459 ft | 306 kts | 146° |
| 2026-05-09 00:33 | 40.20232 | -83.12637 | 10154 ft | 309 kts | 135° |
| 2026-05-09 00:33 | 40.18933 | -83.10403 | 9754 ft | 308 kts | 131° |
| 2026-05-09 00:34 | 40.17706 | -83.08113 | 9324 ft | 306 kts | 130° |
| 2026-05-09 00:34 | 40.16529 | -83.05807 | 8904 ft | 303 kts | 129° |
| 2026-05-09 00:34 | 40.15361 | -83.03528 | 8490 ft | 300 kts | 130° |
| 2026-05-09 00:34 | 40.14203 | -83.01277 | 8082 ft | 298 kts | 130° |
| 2026-05-09 00:35 | 40.13040 | -82.99054 | 7675 ft | 295 kts | 130° |
| 2026-05-09 00:35 | 40.11884 | -82.96856 | 7281 ft | 292 kts | 130° |
| 2026-05-09 00:35 | 40.10732 | -82.94684 | 6894 ft | 289 kts | 131° |
| 2026-05-09 00:35 | 40.09574 | -82.92549 | 6505 ft | 288 kts | 127° |
| 2026-05-09 00:36 | 40.08909 | -82.90078 | 6229 ft | 292 kts | 103° |
| 2026-05-09 00:36 | 40.08685 | -82.87482 | 6102 ft | 282 kts | 100° |
| 2026-05-09 00:36 | 40.08518 | -82.84985 | 6037 ft | 270 kts | 99° |
| 2026-05-09 00:36 | 40.08378 | -82.82588 | 5997 ft | 259 kts | 97° |
| 2026-05-09 00:37 | 40.08335 | -82.80232 | 6009 ft | 265 kts | 95° |
| 2026-05-09 00:37 | 40.08331 | -82.77799 | 5898 ft | 268 kts | 94° |
| 2026-05-09 00:37 | 40.08334 | -82.75369 | 5633 ft | 267 kts | 94° |
| 2026-05-09 00:37 | 40.08335 | -82.72948 | 5366 ft | 266 kts | 93° |
| 2026-05-09 00:38 | 40.08335 | -82.70546 | 5164 ft | 262 kts | 94° |
| 2026-05-09 00:38 | 40.08340 | -82.68204 | 5064 ft | 254 kts | 93° |
| 2026-05-09 00:38 | 40.08349 | -82.65924 | 5042 ft | 249 kts | 93° |
| 2026-05-09 00:38 | 40.08341 | -82.63669 | 4904 ft | 249 kts | 93° |
| 2026-05-09 00:39 | 40.08333 | -82.61404 | 4681 ft | 250 kts | 93° |
| 2026-05-09 00:39 | 40.08256 | -82.59164 | 4478 ft | 244 kts | 108° |
| 2026-05-09 00:39 | 40.07477 | -82.57304 | 4249 ft | 229 kts | 145° |
| 2026-05-09 00:39 | 40.06137 | -82.56447 | 4146 ft | 206 kts | 181° |
| 2026-05-09 00:40 | 40.04754 | -82.56431 | 4074 ft | 195 kts | 188° |
| 2026-05-09 00:40 | 40.03429 | -82.56488 | 4095 ft | 186 kts | 189° |
| 2026-05-09 00:40 | 40.02304 | -82.56960 | 4085 ft | 161 kts | 227° |
| 2026-05-09 00:41 | 40.01153 | -82.59338 | 3931 ft | 158 kts | 242° |
| 2026-05-09 00:41 | 40.00626 | -82.60646 | 3685 ft | 167 kts | 243° |
| 2026-05-09 00:41 | 40.00088 | -82.62034 | 3479 ft | 175 kts | 243° |
| 2026-05-09 00:41 | 39.99777 | -82.63574 | 3402 ft | 178 kts | 267° |
| 2026-05-09 00:42 | 39.99812 | -82.65154 | 3410 ft | 175 kts | 266° |
| 2026-05-09 00:42 | 39.99708 | -82.66747 | 3442 ft | 179 kts | 261° |
| 2026-05-09 00:42 | 39.99585 | -82.68370 | 3462 ft | 181 kts | 262° |
| 2026-05-09 00:42 | 39.99490 | -82.70031 | 3264 ft | 185 kts | 264° |
| 2026-05-09 00:43 | 39.99447 | -82.71130 | 3158 ft | 181 kts | 264° |
| 2026-05-09 00:43 | 39.99402 | -82.73259 | 2870 ft | 169 kts | 268° |
| 2026-05-09 00:43 | 39.99436 | -82.74763 | 2636 ft | 164 kts | 270° |
| 2026-05-09 00:43 | 39.99502 | -82.76243 | 2462 ft | 162 kts | 271° |
| 2026-05-09 00:44 | 39.99567 | -82.77693 | 2344 ft | 159 kts | 271° |
| 2026-05-09 00:44 | 39.99653 | -82.79082 | 2170 ft | 151 kts | 273° |
| 2026-05-09 00:44 | 39.99741 | -82.80438 | 1949 ft | 149 kts | 273° |
| 2026-05-09 00:44 | 39.99805 | -82.81748 | 1770 ft | 141 kts | 272° |
| 2026-05-09 00:45 | 39.99877 | -82.83016 | 1592 ft | 139 kts | 274° |
| 2026-05-09 00:45 | 39.99957 | -82.84270 | 1393 ft | 138 kts | 274° |
| 2026-05-09 00:45 | 40.00025 | -82.85505 | 1225 ft | 136 kts | 272° |
| 2026-05-09 00:45 | 40.00085 | -82.86733 | 1041 ft | 135 kts | 273° |
| 2026-05-09 00:46 | 40.00157 | -82.87954 | 854 ft | 134 kts | 274° |
| 2026-05-09 00:46 | 40.00225 | -82.89101 | 820 ft | 118 kts | 273° |
| 2026-05-09 00:46 | 40.00275 | -82.90016 | 824 ft | 76 kts | 274° |
| 2026-05-09 00:46 | 40.00299 | -82.90446 | 828 ft | 34 kts | 274° |
| 2026-05-09 00:47 | 40.00309 | -82.90692 | 824 ft | 16 kts | 257° |
| 2026-05-09 00:47 | 40.00242 | -82.90753 | 824 ft | 4 kts | 174° |
| 2026-05-09 00:47 | 40.00227 | -82.90734 | 824 ft | 6 kts | 112° |
| 2026-05-09 00:47 | 40.00221 | -82.90657 | 824 ft | 8 kts | 91° |
| 2026-05-09 00:48 | 40.00215 | -82.90554 | 825 ft | 13 kts | 94° |
| 2026-05-09 00:48 | 40.00209 | -82.90461 | 827 ft | 10 kts | 95° |
| 2026-05-09 00:48 | 40.00200 | -82.90307 | 827 ft | 23 kts | 94° |
| 2026-05-09 00:48 | 40.00191 | -82.90105 | 823 ft | 22 kts | 97° |
| 2026-05-09 00:49 | 40.00176 | -82.89925 | 823 ft | 19 kts | 91° |
| 2026-05-09 00:49 | 40.00167 | -82.89763 | 820 ft | 17 kts | 96° |
| 2026-05-09 00:49 | 40.00159 | -82.89602 | 818 ft | 17 kts | 93° |
| 2026-05-09 00:49 | 40.00151 | -82.89443 | 818 ft | 18 kts | 95° |
| 2026-05-09 00:50 | 40.00143 | -82.89315 | 818 ft | 9 kts | 94° |
| 2026-05-09 00:50 | 40.00138 | -82.89195 | 819 ft | 14 kts | 94° |
| 2026-05-09 00:50 | 40.00131 | -82.89090 | 820 ft | 20 kts | 95° |
| 2026-05-09 00:50 | 40.00121 | -82.88922 | 822 ft | 17 kts | 94° |
| 2026-05-09 00:51 | 40.00112 | -82.88752 | 823 ft | 18 kts | 95° |
| 2026-05-09 00:51 | 40.00099 | -82.88665 | 822 ft | 9 kts | 123° |
| 2026-05-09 00:51 | 40.00040 | -82.88632 | 821 ft | 11 kts | 150° |
| 2026-05-09 00:51 | 40.00021 | -82.88523 | 821 ft | 14 kts | 94° |
| 2026-05-09 00:52 | 40.00011 | -82.88388 | 820 ft | 14 kts | 97° |
| 2026-05-09 00:52 | 39.99985 | -82.88284 | 820 ft | 10 kts | 124° |
| 2026-05-09 00:52 | 39.99930 | -82.88206 | 819 ft | 12 kts | 137° |
| 2026-05-09 00:52 | 39.99869 | -82.88204 | 819 ft | 2 kts | 217° |
| 2026-05-09 00:53 | 39.99854 | -82.88213 | 818 ft | 3 kts | 184° |
| 2026-05-09 00:53 | 39.99836 | -82.88213 | 820 ft | 1 kts | 181° |
| 2026-05-09 00:53 | 39.99833 | -82.88213 | 820 ft | 0 kts | 181° |